sensor_id;sensor_type;location;lat;lon;timestamp;P1;durP1;ratioP1;P2;durP2;ratioP2
62580;SDS011;48640;48.770;9.148;2023-12-14T00:02:23;0.70;;;0.60;;
62580;SDS011;48640;48.770;9.148;2023-12-14T00:04:50;0.60;;;0.47;;
62580;SDS011;48640;48.770;9.148;2023-12-14T00:07:17;0.60;;;0.30;;
62580;SDS011;48640;48.770;9.148;2023-12-14T00:09:45;0.80;;;0.40;;
62580;SDS011;48640;48.770;9.148;2023-12-14T00:12:13;0.90;;;0.55;;
62580;SDS011;48640;48.770;9.148;2023-12-14T00:14:40;1.10;;;0.60;;
62580;SDS011;48640;48.770;9.148;2023-12-14T00:17:07;1.40;;;0.70;;
62580;SDS011;48640;48.770;9.148;2023-12-14T00:19:35;0.28;;;0.28;;
62580;SDS011;48640;48.770;9.148;2023-12-14T00:22:01;1.00;;;0.40;;
62580;SDS011;48640;48.770;9.148;2023-12-14T00:24:28;1.73;;;0.65;;
62580;SDS011;48640;48.770;9.148;2023-12-14T00:26:57;0.88;;;0.52;;
62580;SDS011;48640;48.770;9.148;2023-12-14T00:29:23;1.63;;;0.60;;
62580;SDS011;48640;48.770;9.148;2023-12-14T00:31:50;3.83;;;1.15;;
62580;SDS011;48640;48.770;9.148;2023-12-14T00:34:19;0.93;;;0.50;;
62580;SDS011;48640;48.770;9.148;2023-12-14T00:36:48;0.70;;;0.43;;
62580;SDS011;48640;48.770;9.148;2023-12-14T00:39:15;0.73;;;0.30;;
62580;SDS011;48640;48.770;9.148;2023-12-14T00:41:42;1.02;;;0.57;;
62580;SDS011;48640;48.770;9.148;2023-12-14T00:44:10;0.73;;;0.55;;
62580;SDS011;48640;48.770;9.148;2023-12-14T00:46:37;1.35;;;0.50;;
62580;SDS011;48640;48.770;9.148;2023-12-14T00:49:04;0.70;;;0.55;;
62580;SDS011;48640;48.770;9.148;2023-12-14T00:51:30;0.95;;;0.60;;
62580;SDS011;48640;48.770;9.148;2023-12-14T00:53:57;1.80;;;0.70;;
62580;SDS011;48640;48.770;9.148;2023-12-14T00:56:24;1.10;;;0.57;;
62580;SDS011;48640;48.770;9.148;2023-12-14T00:58:52;1.92;;;0.70;;
62580;SDS011;48640;48.770;9.148;2023-12-14T01:01:20;0.80;;;0.52;;
62580;SDS011;48640;48.770;9.148;2023-12-14T01:03:47;1.65;;;0.80;;
62580;SDS011;48640;48.770;9.148;2023-12-14T01:06:13;0.98;;;0.60;;
62580;SDS011;48640;48.770;9.148;2023-12-14T01:08:40;0.50;;;0.30;;
62580;SDS011;48640;48.770;9.148;2023-12-14T01:11:07;0.77;;;0.57;;
62580;SDS011;48640;48.770;9.148;2023-12-14T01:13:36;0.57;;;0.40;;
62580;SDS011;48640;48.770;9.148;2023-12-14T01:16:03;0.82;;;0.47;;
62580;SDS011;48640;48.770;9.148;2023-12-14T01:18:32;0.98;;;0.52;;
62580;SDS011;48640;48.770;9.148;2023-12-14T01:20:59;1.08;;;0.68;;
62580;SDS011;48640;48.770;9.148;2023-12-14T01:23:26;0.47;;;0.40;;
62580;SDS011;48640;48.770;9.148;2023-12-14T01:25:53;1.63;;;0.52;;
62580;SDS011;48640;48.770;9.148;2023-12-14T01:28:19;1.00;;;0.45;;
62580;SDS011;48640;48.770;9.148;2023-12-14T01:30:46;0.77;;;0.47;;
62580;SDS011;48640;48.770;9.148;2023-12-14T01:33:13;0.73;;;0.63;;
62580;SDS011;48640;48.770;9.148;2023-12-14T01:35:41;1.20;;;0.73;;
62580;SDS011;48640;48.770;9.148;2023-12-14T01:38:08;0.60;;;0.40;;
62580;SDS011;48640;48.770;9.148;2023-12-14T01:40:36;0.80;;;0.38;;
62580;SDS011;48640;48.770;9.148;2023-12-14T01:43:06;1.02;;;0.98;;
62580;SDS011;48640;48.770;9.148;2023-12-14T01:45:35;1.23;;;0.50;;
62580;SDS011;48640;48.770;9.148;2023-12-14T01:48:02;0.95;;;0.52;;
62580;SDS011;48640;48.770;9.148;2023-12-14T01:50:29;1.05;;;0.43;;
62580;SDS011;48640;48.770;9.148;2023-12-14T01:52:57;1.17;;;0.50;;
62580;SDS011;48640;48.770;9.148;2023-12-14T01:55:24;0.80;;;0.40;;
62580;SDS011;48640;48.770;9.148;2023-12-14T01:57:52;1.10;;;0.57;;
62580;SDS011;48640;48.770;9.148;2023-12-14T02:00:22;1.70;;;0.50;;
62580;SDS011;48640;48.770;9.148;2023-12-14T02:02:56;5.10;;;1.00;;
62580;SDS011;48640;48.770;9.148;2023-12-14T02:05:23;0.77;;;0.50;;
62580;SDS011;48640;48.770;9.148;2023-12-14T02:07:50;2.22;;;0.47;;
62580;SDS011;48640;48.770;9.148;2023-12-14T02:10:18;0.75;;;0.30;;
62580;SDS011;48640;48.770;9.148;2023-12-14T02:12:45;0.85;;;0.40;;
62580;SDS011;48640;48.770;9.148;2023-12-14T02:15:12;0.28;;;0.28;;
62580;SDS011;48640;48.770;9.148;2023-12-14T02:17:39;0.52;;;0.25;;
62580;SDS011;48640;48.770;9.148;2023-12-14T02:20:06;0.65;;;0.20;;
62580;SDS011;48640;48.770;9.148;2023-12-14T02:22:35;0.75;;;0.50;;
62580;SDS011;48640;48.770;9.148;2023-12-14T02:25:15;0.95;;;0.50;;
62580;SDS011;48640;48.770;9.148;2023-12-14T02:27:41;0.77;;;0.57;;
62580;SDS011;48640;48.770;9.148;2023-12-14T02:30:09;1.27;;;0.50;;
62580;SDS011;48640;48.770;9.148;2023-12-14T02:32:36;0.85;;;0.50;;
62580;SDS011;48640;48.770;9.148;2023-12-14T02:35:04;0.68;;;0.47;;
62580;SDS011;48640;48.770;9.148;2023-12-14T02:37:32;0.95;;;0.40;;
62580;SDS011;48640;48.770;9.148;2023-12-14T02:40:00;0.65;;;0.30;;
62580;SDS011;48640;48.770;9.148;2023-12-14T02:42:27;0.65;;;0.52;;
62580;SDS011;48640;48.770;9.148;2023-12-14T02:44:54;0.85;;;0.50;;
62580;SDS011;48640;48.770;9.148;2023-12-14T02:47:22;0.28;;;0.25;;
62580;SDS011;48640;48.770;9.148;2023-12-14T02:49:50;0.90;;;0.57;;
62580;SDS011;48640;48.770;9.148;2023-12-14T02:52:17;1.17;;;0.45;;
62580;SDS011;48640;48.770;9.148;2023-12-14T02:54:44;0.82;;;0.52;;
62580;SDS011;48640;48.770;9.148;2023-12-14T02:57:12;0.52;;;0.40;;
62580;SDS011;48640;48.770;9.148;2023-12-14T02:59:40;0.50;;;0.38;;
62580;SDS011;48640;48.770;9.148;2023-12-14T03:02:06;0.47;;;0.40;;
62580;SDS011;48640;48.770;9.148;2023-12-14T03:04:34;2.35;;;0.65;;
62580;SDS011;48640;48.770;9.148;2023-12-14T03:07:01;0.50;;;0.30;;
62580;SDS011;48640;48.770;9.148;2023-12-14T03:09:28;0.68;;;0.38;;
62580;SDS011;48640;48.770;9.148;2023-12-14T03:11:54;0.68;;;0.52;;
62580;SDS011;48640;48.770;9.148;2023-12-14T03:14:23;0.98;;;0.50;;
62580;SDS011;48640;48.770;9.148;2023-12-14T03:16:50;0.95;;;0.32;;
62580;SDS011;48640;48.770;9.148;2023-12-14T03:19:17;0.93;;;0.50;;
62580;SDS011;48640;48.770;9.148;2023-12-14T03:21:44;2.10;;;1.40;;
62580;SDS011;48640;48.770;9.148;2023-12-14T03:24:11;1.17;;;0.40;;
62580;SDS011;48640;48.770;9.148;2023-12-14T03:26:38;1.13;;;0.55;;
62580;SDS011;48640;48.770;9.148;2023-12-14T03:29:05;0.85;;;0.40;;
62580;SDS011;48640;48.770;9.148;2023-12-14T03:31:34;0.65;;;0.40;;
62580;SDS011;48640;48.770;9.148;2023-12-14T03:34:01;0.73;;;0.40;;
62580;SDS011;48640;48.770;9.148;2023-12-14T03:36:28;0.57;;;0.45;;
62580;SDS011;48640;48.770;9.148;2023-12-14T03:38:55;1.13;;;0.65;;
62580;SDS011;48640;48.770;9.148;2023-12-14T03:41:21;0.90;;;0.68;;
62580;SDS011;48640;48.770;9.148;2023-12-14T03:43:48;0.77;;;0.32;;
62580;SDS011;48640;48.770;9.148;2023-12-14T03:46:15;1.20;;;0.60;;
62580;SDS011;48640;48.770;9.148;2023-12-14T03:48:43;0.90;;;0.55;;
62580;SDS011;48640;48.770;9.148;2023-12-14T03:51:10;0.98;;;0.70;;
62580;SDS011;48640;48.770;9.148;2023-12-14T03:53:37;1.25;;;0.57;;
62580;SDS011;48640;48.770;9.148;2023-12-14T03:56:05;0.63;;;0.57;;
62580;SDS011;48640;48.770;9.148;2023-12-14T03:58:32;1.67;;;0.80;;
62580;SDS011;48640;48.770;9.148;2023-12-14T04:00:59;0.40;;;0.40;;
62580;SDS011;48640;48.770;9.148;2023-12-14T04:03:26;1.33;;;0.68;;
62580;SDS011;48640;48.770;9.148;2023-12-14T04:05:56;1.88;;;0.50;;
62580;SDS011;48640;48.770;9.148;2023-12-14T04:08:23;2.42;;;0.50;;
62580;SDS011;48640;48.770;9.148;2023-12-14T04:10:50;1.25;;;0.73;;
62580;SDS011;48640;48.770;9.148;2023-12-14T04:13:18;1.05;;;0.55;;
62580;SDS011;48640;48.770;9.148;2023-12-14T04:15:46;0.85;;;0.55;;
62580;SDS011;48640;48.770;9.148;2023-12-14T04:18:13;0.57;;;0.40;;
62580;SDS011;48640;48.770;9.148;2023-12-14T04:20:40;0.77;;;0.43;;
62580;SDS011;48640;48.770;9.148;2023-12-14T04:23:09;0.65;;;0.55;;
62580;SDS011;48640;48.770;9.148;2023-12-14T04:25:36;1.20;;;0.68;;
62580;SDS011;48640;48.770;9.148;2023-12-14T04:28:03;1.75;;;0.70;;
62580;SDS011;48640;48.770;9.148;2023-12-14T04:30:30;0.75;;;0.60;;
62580;SDS011;48640;48.770;9.148;2023-12-14T04:32:56;0.90;;;0.50;;
62580;SDS011;48640;48.770;9.148;2023-12-14T04:35:23;1.88;;;1.00;;
62580;SDS011;48640;48.770;9.148;2023-12-14T04:37:50;1.45;;;0.60;;
62580;SDS011;48640;48.770;9.148;2023-12-14T04:40:19;1.60;;;0.82;;
62580;SDS011;48640;48.770;9.148;2023-12-14T04:42:45;1.52;;;0.55;;
62580;SDS011;48640;48.770;9.148;2023-12-14T04:45:12;0.57;;;0.45;;
62580;SDS011;48640;48.770;9.148;2023-12-14T04:47:41;1.00;;;0.70;;
62580;SDS011;48640;48.770;9.148;2023-12-14T04:50:08;1.02;;;0.60;;
62580;SDS011;48640;48.770;9.148;2023-12-14T04:52:36;0.82;;;0.52;;
62580;SDS011;48640;48.770;9.148;2023-12-14T04:55:03;1.13;;;0.68;;
62580;SDS011;48640;48.770;9.148;2023-12-14T04:57:31;0.90;;;0.60;;
62580;SDS011;48640;48.770;9.148;2023-12-14T04:59:58;1.45;;;1.08;;
62580;SDS011;48640;48.770;9.148;2023-12-14T05:02:25;3.00;;;1.23;;
62580;SDS011;48640;48.770;9.148;2023-12-14T05:04:52;1.55;;;0.73;;
62580;SDS011;48640;48.770;9.148;2023-12-14T05:07:19;1.75;;;0.95;;
62580;SDS011;48640;48.770;9.148;2023-12-14T05:09:48;1.38;;;0.85;;
62580;SDS011;48640;48.770;9.148;2023-12-14T05:12:14;1.77;;;1.08;;
62580;SDS011;48640;48.770;9.148;2023-12-14T05:14:43;1.35;;;0.88;;
62580;SDS011;48640;48.770;9.148;2023-12-14T05:17:10;1.73;;;1.00;;
62580;SDS011;48640;48.770;9.148;2023-12-14T05:19:37;1.95;;;0.90;;
62580;SDS011;48640;48.770;9.148;2023-12-14T05:22:04;1.77;;;1.10;;
62580;SDS011;48640;48.770;9.148;2023-12-14T05:24:30;1.85;;;0.95;;
62580;SDS011;48640;48.770;9.148;2023-12-14T05:26:58;1.38;;;0.85;;
62580;SDS011;48640;48.770;9.148;2023-12-14T05:29:25;1.50;;;0.88;;
62580;SDS011;48640;48.770;9.148;2023-12-14T05:31:53;1.17;;;0.65;;
62580;SDS011;48640;48.770;9.148;2023-12-14T05:34:20;1.33;;;0.70;;
62580;SDS011;48640;48.770;9.148;2023-12-14T05:36:47;2.00;;;1.10;;
62580;SDS011;48640;48.770;9.148;2023-12-14T05:39:14;1.40;;;0.68;;
62580;SDS011;48640;48.770;9.148;2023-12-14T05:41:41;2.03;;;1.10;;
62580;SDS011;48640;48.770;9.148;2023-12-14T05:44:15;1.08;;;0.73;;
62580;SDS011;48640;48.770;9.148;2023-12-14T05:46:42;1.38;;;0.85;;
62580;SDS011;48640;48.770;9.148;2023-12-14T05:49:10;2.85;;;0.77;;
62580;SDS011;48640;48.770;9.148;2023-12-14T05:51:38;3.00;;;1.73;;
62580;SDS011;48640;48.770;9.148;2023-12-14T05:54:04;1.60;;;0.95;;
62580;SDS011;48640;48.770;9.148;2023-12-14T05:56:31;2.05;;;1.10;;
62580;SDS011;48640;48.770;9.148;2023-12-14T05:58:58;4.00;;;1.30;;
62580;SDS011;48640;48.770;9.148;2023-12-14T06:01:25;2.28;;;1.30;;
62580;SDS011;48640;48.770;9.148;2023-12-14T06:03:52;2.83;;;1.33;;
62580;SDS011;48640;48.770;9.148;2023-12-14T06:06:21;3.03;;;2.17;;
62580;SDS011;48640;48.770;9.148;2023-12-14T06:08:48;2.05;;;1.10;;
62580;SDS011;48640;48.770;9.148;2023-12-14T06:11:16;3.50;;;1.73;;
62580;SDS011;48640;48.770;9.148;2023-12-14T06:13:44;4.50;;;1.35;;
62580;SDS011;48640;48.770;9.148;2023-12-14T06:16:11;2.38;;;1.42;;
62580;SDS011;48640;48.770;9.148;2023-12-14T06:18:39;1.75;;;1.00;;
62580;SDS011;48640;48.770;9.148;2023-12-14T06:21:08;2.45;;;1.17;;
62580;SDS011;48640;48.770;9.148;2023-12-14T06:23:38;2.40;;;1.05;;
62580;SDS011;48640;48.770;9.148;2023-12-14T06:26:05;3.83;;;1.05;;
62580;SDS011;48640;48.770;9.148;2023-12-14T06:28:33;1.85;;;1.15;;
62580;SDS011;48640;48.770;9.148;2023-12-14T06:33:34;1.80;;;0.95;;
62580;SDS011;48640;48.770;9.148;2023-12-14T06:36:03;2.17;;;1.20;;
62580;SDS011;48640;48.770;9.148;2023-12-14T06:38:31;2.70;;;1.48;;
62580;SDS011;48640;48.770;9.148;2023-12-14T06:41:07;1.98;;;0.98;;
62580;SDS011;48640;48.770;9.148;2023-12-14T06:43:40;3.15;;;1.40;;
62580;SDS011;48640;48.770;9.148;2023-12-14T06:46:07;2.53;;;1.77;;
62580;SDS011;48640;48.770;9.148;2023-12-14T06:48:35;2.88;;;1.55;;
62580;SDS011;48640;48.770;9.148;2023-12-14T06:51:02;2.22;;;1.40;;
62580;SDS011;48640;48.770;9.148;2023-12-14T06:53:43;3.70;;;1.20;;
62580;SDS011;48640;48.770;9.148;2023-12-14T06:56:14;3.25;;;1.70;;
62580;SDS011;48640;48.770;9.148;2023-12-14T06:58:43;2.20;;;1.33;;
62580;SDS011;48640;48.770;9.148;2023-12-14T07:01:17;2.65;;;1.38;;
62580;SDS011;48640;48.770;9.148;2023-12-14T07:03:59;2.35;;;1.30;;
62580;SDS011;48640;48.770;9.148;2023-12-14T07:06:28;2.75;;;1.30;;
62580;SDS011;48640;48.770;9.148;2023-12-14T07:08:56;2.60;;;1.30;;
62580;SDS011;48640;48.770;9.148;2023-12-14T07:11:36;4.18;;;2.00;;
62580;SDS011;48640;48.770;9.148;2023-12-14T07:14:07;2.25;;;1.27;;
62580;SDS011;48640;48.770;9.148;2023-12-14T07:16:34;3.08;;;2.05;;
62580;SDS011;48640;48.770;9.148;2023-12-14T07:19:08;3.58;;;1.70;;
62580;SDS011;48640;48.770;9.148;2023-12-14T07:21:52;4.10;;;1.48;;
62580;SDS011;48640;48.770;9.148;2023-12-14T07:24:25;2.85;;;1.48;;
62580;SDS011;48640;48.770;9.148;2023-12-14T07:26:58;3.25;;;1.60;;
62580;SDS011;48640;48.770;9.148;2023-12-14T07:29:27;2.30;;;1.58;;
62580;SDS011;48640;48.770;9.148;2023-12-14T07:34:24;2.85;;;1.77;;
62580;SDS011;48640;48.770;9.148;2023-12-14T07:36:56;3.58;;;2.28;;
62580;SDS011;48640;48.770;9.148;2023-12-14T07:39:23;3.25;;;1.95;;
62580;SDS011;48640;48.770;9.148;2023-12-14T07:41:54;3.40;;;1.88;;
62580;SDS011;48640;48.770;9.148;2023-12-14T07:44:41;3.65;;;2.30;;
62580;SDS011;48640;48.770;9.148;2023-12-14T07:47:27;3.03;;;1.73;;
62580;SDS011;48640;48.770;9.148;2023-12-14T07:49:56;3.85;;;1.90;;
62580;SDS011;48640;48.770;9.148;2023-12-14T07:52:28;5.10;;;1.92;;
62580;SDS011;48640;48.770;9.148;2023-12-14T07:54:57;3.83;;;1.90;;
62580;SDS011;48640;48.770;9.148;2023-12-14T07:57:34;3.25;;;1.73;;
62580;SDS011;48640;48.770;9.148;2023-12-14T08:00:01;2.90;;;1.50;;
62580;SDS011;48640;48.770;9.148;2023-12-14T08:02:29;2.92;;;1.50;;
62580;SDS011;48640;48.770;9.148;2023-12-14T08:04:56;4.97;;;1.95;;
62580;SDS011;48640;48.770;9.148;2023-12-14T08:07:23;3.15;;;1.83;;
62580;SDS011;48640;48.770;9.148;2023-12-14T08:09:56;3.28;;;1.50;;
62580;SDS011;48640;48.770;9.148;2023-12-14T08:12:31;4.10;;;2.00;;
62580;SDS011;48640;48.770;9.148;2023-12-14T08:15:00;3.63;;;1.67;;
62580;SDS011;48640;48.770;9.148;2023-12-14T08:17:29;4.07;;;2.20;;
62580;SDS011;48640;48.770;9.148;2023-12-14T08:19:59;3.80;;;2.10;;
62580;SDS011;48640;48.770;9.148;2023-12-14T08:22:27;3.17;;;2.08;;
62580;SDS011;48640;48.770;9.148;2023-12-14T08:24:56;4.60;;;2.00;;
62580;SDS011;48640;48.770;9.148;2023-12-14T08:27:23;2.88;;;1.83;;
62580;SDS011;48640;48.770;9.148;2023-12-14T08:29:51;3.15;;;1.52;;
62580;SDS011;48640;48.770;9.148;2023-12-14T08:32:18;3.65;;;2.17;;
62580;SDS011;48640;48.770;9.148;2023-12-14T08:34:45;3.33;;;2.05;;
62580;SDS011;48640;48.770;9.148;2023-12-14T08:37:14;3.38;;;1.85;;
62580;SDS011;48640;48.770;9.148;2023-12-14T08:39:42;4.18;;;2.45;;
62580;SDS011;48640;48.770;9.148;2023-12-14T08:42:11;3.20;;;1.83;;
62580;SDS011;48640;48.770;9.148;2023-12-14T08:44:38;4.93;;;2.40;;
62580;SDS011;48640;48.770;9.148;2023-12-14T08:47:06;4.50;;;2.67;;
62580;SDS011;48640;48.770;9.148;2023-12-14T08:49:36;5.68;;;2.22;;
62580;SDS011;48640;48.770;9.148;2023-12-14T08:52:04;4.45;;;2.50;;
62580;SDS011;48640;48.770;9.148;2023-12-14T08:54:31;4.25;;;2.55;;
62580;SDS011;48640;48.770;9.148;2023-12-14T08:57:00;5.10;;;3.20;;
62580;SDS011;48640;48.770;9.148;2023-12-14T08:59:36;4.43;;;2.00;;
62580;SDS011;48640;48.770;9.148;2023-12-14T09:02:11;4.47;;;2.25;;
62580;SDS011;48640;48.770;9.148;2023-12-14T09:04:53;3.60;;;1.95;;
62580;SDS011;48640;48.770;9.148;2023-12-14T09:07:20;3.38;;;1.92;;
62580;SDS011;48640;48.770;9.148;2023-12-14T09:09:56;5.60;;;2.92;;
62580;SDS011;48640;48.770;9.148;2023-12-14T09:12:27;3.20;;;1.65;;
62580;SDS011;48640;48.770;9.148;2023-12-14T09:15:01;3.33;;;1.75;;
62580;SDS011;48640;48.770;9.148;2023-12-14T09:17:41;4.25;;;2.15;;
62580;SDS011;48640;48.770;9.148;2023-12-14T09:20:10;3.50;;;2.13;;
62580;SDS011;48640;48.770;9.148;2023-12-14T09:22:49;5.05;;;2.03;;
62580;SDS011;48640;48.770;9.148;2023-12-14T09:25:23;3.00;;;1.75;;
62580;SDS011;48640;48.770;9.148;2023-12-14T09:27:58;3.25;;;1.95;;
62580;SDS011;48640;48.770;9.148;2023-12-14T09:30:35;3.85;;;2.00;;
62580;SDS011;48640;48.770;9.148;2023-12-14T09:33:14;2.92;;;1.65;;
62580;SDS011;48640;48.770;9.148;2023-12-14T09:35:43;4.15;;;2.30;;
62580;SDS011;48640;48.770;9.148;2023-12-14T09:38:12;4.95;;;2.65;;
62580;SDS011;48640;48.770;9.148;2023-12-14T09:40:54;7.60;;;3.47;;
62580;SDS011;48640;48.770;9.148;2023-12-14T09:43:23;6.55;;;2.50;;
62580;SDS011;48640;48.770;9.148;2023-12-14T09:45:53;8.90;;;2.80;;
62580;SDS011;48640;48.770;9.148;2023-12-14T09:48:26;5.15;;;2.45;;
62580;SDS011;48640;48.770;9.148;2023-12-14T09:50:55;3.90;;;2.40;;
62580;SDS011;48640;48.770;9.148;2023-12-14T09:53:24;4.75;;;2.65;;
62580;SDS011;48640;48.770;9.148;2023-12-14T09:55:55;4.15;;;2.45;;
62580;SDS011;48640;48.770;9.148;2023-12-14T09:58:26;5.10;;;2.30;;
62580;SDS011;48640;48.770;9.148;2023-12-14T10:00:57;4.22;;;2.38;;
62580;SDS011;48640;48.770;9.148;2023-12-14T10:03:31;5.63;;;3.38;;
62580;SDS011;48640;48.770;9.148;2023-12-14T10:06:00;5.07;;;2.83;;
62580;SDS011;48640;48.770;9.148;2023-12-14T10:08:29;4.45;;;2.38;;
62580;SDS011;48640;48.770;9.148;2023-12-14T10:10:59;4.00;;;2.38;;
62580;SDS011;48640;48.770;9.148;2023-12-14T10:13:38;3.67;;;2.55;;
62580;SDS011;48640;48.770;9.148;2023-12-14T10:16:08;4.53;;;2.17;;
62580;SDS011;48640;48.770;9.148;2023-12-14T10:18:38;7.55;;;2.40;;
62580;SDS011;48640;48.770;9.148;2023-12-14T10:21:06;7.95;;;2.85;;
62580;SDS011;48640;48.770;9.148;2023-12-14T10:23:35;4.28;;;2.42;;
62580;SDS011;48640;48.770;9.148;2023-12-14T10:26:11;3.78;;;2.55;;
62580;SDS011;48640;48.770;9.148;2023-12-14T10:28:42;4.88;;;2.35;;
62580;SDS011;48640;48.770;9.148;2023-12-14T10:31:09;5.28;;;2.38;;
62580;SDS011;48640;48.770;9.148;2023-12-14T10:33:45;4.30;;;1.98;;
62580;SDS011;48640;48.770;9.148;2023-12-14T10:36:17;5.90;;;2.90;;
62580;SDS011;48640;48.770;9.148;2023-12-14T10:38:49;3.90;;;2.63;;
62580;SDS011;48640;48.770;9.148;2023-12-14T10:41:35;7.90;;;2.53;;
62580;SDS011;48640;48.770;9.148;2023-12-14T10:44:03;4.55;;;2.38;;
62580;SDS011;48640;48.770;9.148;2023-12-14T10:46:47;3.38;;;1.65;;
62580;SDS011;48640;48.770;9.148;2023-12-14T10:49:21;4.13;;;2.28;;
62580;SDS011;48640;48.770;9.148;2023-12-14T10:51:49;3.85;;;2.25;;
62580;SDS011;48640;48.770;9.148;2023-12-14T10:54:17;3.33;;;1.65;;
62580;SDS011;48640;48.770;9.148;2023-12-14T10:56:48;5.75;;;2.08;;
62580;SDS011;48640;48.770;9.148;2023-12-14T10:59:15;3.15;;;1.92;;
62580;SDS011;48640;48.770;9.148;2023-12-14T11:01:51;3.08;;;1.77;;
62580;SDS011;48640;48.770;9.148;2023-12-14T11:04:36;5.45;;;2.03;;
62580;SDS011;48640;48.770;9.148;2023-12-14T11:12:49;3.85;;;1.98;;
62580;SDS011;48640;48.770;9.148;2023-12-14T11:15:35;4.43;;;2.10;;
62580;SDS011;48640;48.770;9.148;2023-12-14T11:18:27;3.95;;;2.17;;
62580;SDS011;48640;48.770;9.148;2023-12-14T11:20:59;6.55;;;2.53;;
62580;SDS011;48640;48.770;9.148;2023-12-14T11:23:30;4.47;;;1.77;;
62580;SDS011;48640;48.770;9.148;2023-12-14T11:26:02;2.97;;;1.67;;
62580;SDS011;48640;48.770;9.148;2023-12-14T11:28:34;4.72;;;1.67;;
62580;SDS011;48640;48.770;9.148;2023-12-14T11:31:05;3.58;;;2.13;;
62580;SDS011;48640;48.770;9.148;2023-12-14T11:33:37;4.57;;;2.08;;
62580;SDS011;48640;48.770;9.148;2023-12-14T11:36:10;6.33;;;2.50;;
62580;SDS011;48640;48.770;9.148;2023-12-14T11:38:40;4.53;;;1.95;;
62580;SDS011;48640;48.770;9.148;2023-12-14T11:41:08;4.38;;;2.22;;
62580;SDS011;48640;48.770;9.148;2023-12-14T11:43:38;4.45;;;2.72;;
62580;SDS011;48640;48.770;9.148;2023-12-14T11:46:07;4.13;;;2.20;;
62580;SDS011;48640;48.770;9.148;2023-12-14T11:48:36;2.75;;;1.95;;
62580;SDS011;48640;48.770;9.148;2023-12-14T11:51:09;2.83;;;1.80;;
62580;SDS011;48640;48.770;9.148;2023-12-14T11:53:45;3.15;;;2.13;;
62580;SDS011;48640;48.770;9.148;2023-12-14T11:56:14;3.90;;;1.50;;
62580;SDS011;48640;48.770;9.148;2023-12-14T11:58:54;9.40;;;1.88;;
62580;SDS011;48640;48.770;9.148;2023-12-14T12:01:25;2.70;;;1.63;;
62580;SDS011;48640;48.770;9.148;2023-12-14T12:07:15;0.85;;;0.55;;
62580;SDS011;48640;48.770;9.148;2023-12-14T12:09:46;1.77;;;0.82;;
62580;SDS011;48640;48.770;9.148;2023-12-14T12:12:18;1.52;;;0.82;;
62580;SDS011;48640;48.770;9.148;2023-12-14T12:14:47;1.55;;;0.77;;
62580;SDS011;48640;48.770;9.148;2023-12-14T12:17:27;2.33;;;0.88;;
62580;SDS011;48640;48.770;9.148;2023-12-14T12:19:57;1.90;;;1.27;;
62580;SDS011;48640;48.770;9.148;2023-12-14T12:22:38;2.00;;;1.10;;
62580;SDS011;48640;48.770;9.148;2023-12-14T12:25:20;1.55;;;1.00;;
62580;SDS011;48640;48.770;9.148;2023-12-14T12:27:52;2.40;;;0.98;;
62580;SDS011;48640;48.770;9.148;2023-12-14T12:30:24;1.33;;;0.75;;
62580;SDS011;48640;48.770;9.148;2023-12-14T12:35:24;0.88;;;0.63;;
62580;SDS011;48640;48.770;9.148;2023-12-14T12:37:53;1.65;;;0.60;;
62580;SDS011;48640;48.770;9.148;2023-12-14T12:40:23;1.92;;;0.90;;
62580;SDS011;48640;48.770;9.148;2023-12-14T12:42:51;2.28;;;1.13;;
62580;SDS011;48640;48.770;9.148;2023-12-14T12:45:20;2.13;;;1.40;;
62580;SDS011;48640;48.770;9.148;2023-12-14T12:47:55;1.13;;;0.60;;
62580;SDS011;48640;48.770;9.148;2023-12-14T12:50:24;1.00;;;0.70;;
62580;SDS011;48640;48.770;9.148;2023-12-14T12:55:54;1.40;;;0.75;;
62580;SDS011;48640;48.770;9.148;2023-12-14T12:58:28;1.10;;;0.55;;
62580;SDS011;48640;48.770;9.148;2023-12-14T13:01:21;1.27;;;0.68;;
62580;SDS011;48640;48.770;9.148;2023-12-14T13:04:06;0.82;;;0.55;;
62580;SDS011;48640;48.770;9.148;2023-12-14T13:06:44;1.45;;;0.80;;
62580;SDS011;48640;48.770;9.148;2023-12-14T13:09:15;2.35;;;0.75;;
62580;SDS011;48640;48.770;9.148;2023-12-14T13:11:44;1.40;;;0.85;;
62580;SDS011;48640;48.770;9.148;2023-12-14T13:14:12;1.88;;;0.73;;
62580;SDS011;48640;48.770;9.148;2023-12-14T13:16:40;1.35;;;0.85;;
62580;SDS011;48640;48.770;9.148;2023-12-14T13:19:14;1.00;;;0.65;;
62580;SDS011;48640;48.770;9.148;2023-12-14T13:27:58;1.88;;;0.80;;
62580;SDS011;48640;48.770;9.148;2023-12-14T13:30:43;1.93;;;0.57;;
62580;SDS011;48640;48.770;9.148;2023-12-14T13:33:32;0.40;;;0.40;;
62580;SDS011;48640;48.770;9.148;2023-12-14T13:39:17;2.10;;;1.13;;
62580;SDS011;48640;48.770;9.148;2023-12-14T13:42:09;0.45;;;0.40;;
62580;SDS011;48640;48.770;9.148;2023-12-14T13:44:46;0.77;;;0.57;;
62580;SDS011;48640;48.770;9.148;2023-12-14T13:47:20;1.48;;;0.85;;
62580;SDS011;48640;48.770;9.148;2023-12-14T13:49:51;1.75;;;0.80;;
62580;SDS011;48640;48.770;9.148;2023-12-14T13:52:20;1.13;;;0.80;;
62580;SDS011;48640;48.770;9.148;2023-12-14T13:55:03;1.85;;;1.02;;
62580;SDS011;48640;48.770;9.148;2023-12-14T13:57:37;1.55;;;0.93;;
62580;SDS011;48640;48.770;9.148;2023-12-14T14:00:22;2.00;;;1.23;;
62580;SDS011;48640;48.770;9.148;2023-12-14T14:02:49;1.67;;;1.00;;
62580;SDS011;48640;48.770;9.148;2023-12-14T14:05:26;4.68;;;1.40;;
62580;SDS011;48640;48.770;9.148;2023-12-14T14:08:05;11.90;;;2.10;;
62580;SDS011;48640;48.770;9.148;2023-12-14T14:10:40;2.38;;;1.30;;
62580;SDS011;48640;48.770;9.148;2023-12-14T14:13:21;2.47;;;1.08;;
62580;SDS011;48640;48.770;9.148;2023-12-14T14:15:49;2.85;;;1.67;;
62580;SDS011;48640;48.770;9.148;2023-12-14T14:18:20;2.15;;;1.40;;
62580;SDS011;48640;48.770;9.148;2023-12-14T14:21:04;4.18;;;1.95;;
62580;SDS011;48640;48.770;9.148;2023-12-14T14:23:34;4.47;;;2.58;;
62580;SDS011;48640;48.770;9.148;2023-12-14T14:26:03;4.30;;;2.17;;
62580;SDS011;48640;48.770;9.148;2023-12-14T14:28:43;5.68;;;2.78;;
62580;SDS011;48640;48.770;9.148;2023-12-14T14:31:45;4.45;;;2.05;;
62580;SDS011;48640;48.770;9.148;2023-12-14T14:34:15;3.90;;;2.53;;
62580;SDS011;48640;48.770;9.148;2023-12-14T14:36:51;4.70;;;2.50;;
62580;SDS011;48640;48.770;9.148;2023-12-14T14:39:19;6.25;;;2.50;;
62580;SDS011;48640;48.770;9.148;2023-12-14T14:42:01;4.75;;;2.60;;
62580;SDS011;48640;48.770;9.148;2023-12-14T14:44:37;4.97;;;2.38;;
62580;SDS011;48640;48.770;9.148;2023-12-14T14:47:10;5.88;;;3.55;;
62580;SDS011;48640;48.770;9.148;2023-12-14T14:49:47;4.80;;;3.10;;
62580;SDS011;48640;48.770;9.148;2023-12-14T14:52:38;7.55;;;3.42;;
62580;SDS011;48640;48.770;9.148;2023-12-14T14:55:06;5.72;;;3.13;;
62580;SDS011;48640;48.770;9.148;2023-12-14T14:57:35;5.88;;;3.15;;
62580;SDS011;48640;48.770;9.148;2023-12-14T15:00:04;4.57;;;2.53;;
62580;SDS011;48640;48.770;9.148;2023-12-14T15:02:35;6.78;;;2.97;;
62580;SDS011;48640;48.770;9.148;2023-12-14T15:05:08;5.88;;;3.20;;
62580;SDS011;48640;48.770;9.148;2023-12-14T15:07:37;5.68;;;3.15;;
62580;SDS011;48640;48.770;9.148;2023-12-14T15:10:08;6.10;;;3.13;;
62580;SDS011;48640;48.770;9.148;2023-12-14T15:12:51;5.47;;;2.90;;
62580;SDS011;48640;48.770;9.148;2023-12-14T15:15:29;6.60;;;3.00;;
62580;SDS011;48640;48.770;9.148;2023-12-14T15:17:57;6.60;;;3.05;;
62580;SDS011;48640;48.770;9.148;2023-12-14T15:20:25;5.78;;;3.28;;
62580;SDS011;48640;48.770;9.148;2023-12-14T15:23:03;7.32;;;3.17;;
62580;SDS011;48640;48.770;9.148;2023-12-14T15:25:40;5.97;;;2.63;;
62580;SDS011;48640;48.770;9.148;2023-12-14T15:28:08;5.95;;;2.90;;
62580;SDS011;48640;48.770;9.148;2023-12-14T15:30:47;6.82;;;3.42;;
62580;SDS011;48640;48.770;9.148;2023-12-14T15:33:23;7.20;;;3.72;;
62580;SDS011;48640;48.770;9.148;2023-12-14T15:35:57;6.85;;;3.47;;
62580;SDS011;48640;48.770;9.148;2023-12-14T15:38:26;5.68;;;3.10;;